createdAt,value
2023-01-25T00:02:50.953Z,1030.27
2023-01-25T00:05:59.799Z,1030.24
2023-01-25T00:09:08.057Z,1030.21
2023-01-25T00:12:17.279Z,1030.11
2023-01-25T00:15:25.496Z,1030.08
2023-01-25T00:18:34.354Z,1030.13
2023-01-25T00:21:43.263Z,1030.07
2023-01-25T00:24:51.452Z,1030.05
2023-01-25T00:28:00.612Z,1029.99
2023-01-25T00:32:49.224Z,1029.97
2023-01-25T00:35:57.415Z,1029.95
2023-01-25T00:39:04.654Z,1029.93
2023-01-25T00:42:12.229Z,1029.92
2023-01-25T00:45:19.595Z,1029.86
2023-01-25T00:48:27.087Z,1029.87
2023-01-25T00:51:34.783Z,1029.93
2023-01-25T00:54:42.219Z,1029.85
2023-01-25T00:57:49.501Z,1029.81
2023-01-25T01:00:56.783Z,1029.76
2023-01-25T01:04:05.793Z,1029.68
2023-01-25T01:07:13.806Z,1029.72
2023-01-25T01:10:21.224Z,1029.61
2023-01-25T01:13:28.822Z,1029.71
2023-01-25T01:16:36.102Z,1029.66
2023-01-25T01:19:43.316Z,1029.63
2023-01-25T01:22:51.126Z,1029.62
2023-01-25T01:25:58.153Z,1029.59
2023-01-25T01:29:05.811Z,1029.58
2023-01-25T01:32:13.666Z,1029.52
2023-01-25T01:35:20.693Z,1029.47
2023-01-25T01:38:28.532Z,1029.47
2023-01-25T01:41:36.284Z,1029.41
2023-01-25T01:44:37.978Z,1029.36
2023-01-25T01:47:45.625Z,1029.33
2023-01-25T01:50:52.621Z,1029.27
2023-01-25T01:54:00.539Z,1029.20
2023-01-25T01:57:07.862Z,1029.14
2023-01-25T02:00:15.220Z,1029.14
2023-01-25T02:03:23.306Z,1029.13
2023-01-25T02:06:30.226Z,1029.07
2023-01-25T02:09:37.672Z,1029.01
2023-01-25T02:12:44.895Z,1029.03
2023-01-25T02:15:52.023Z,1028.97
2023-01-25T02:18:59.707Z,1028.98
2023-01-25T02:22:07.234Z,1028.95
2023-01-25T02:25:14.393Z,1028.94
2023-01-25T02:28:22.211Z,1029.00
2023-01-25T02:31:29.344Z,1029.02
2023-01-25T02:34:36.255Z,1029.05
2023-01-25T02:37:43.477Z,1029.02
2023-01-25T02:40:50.599Z,1029.01
2023-01-25T02:43:57.798Z,1028.94
2023-01-25T02:47:04.923Z,1028.94
2023-01-25T02:50:14.306Z,1028.98
2023-01-25T02:53:22.413Z,1028.89
2023-01-25T02:56:29.684Z,1028.89
2023-01-25T02:59:37.182Z,1028.91
2023-01-25T03:02:44.853Z,1028.91
2023-01-25T03:05:51.942Z,1028.88
2023-01-25T03:08:59.323Z,1028.87
2023-01-25T03:12:06.449Z,1028.86
2023-01-25T03:15:13.747Z,1028.82
2023-01-25T03:18:21.377Z,1028.82
2023-01-25T03:21:28.038Z,1028.80
2023-01-25T03:24:35.529Z,1028.80
2023-01-25T03:27:43.035Z,1028.75
2023-01-25T03:30:50.010Z,1028.66
2023-01-25T03:33:58.316Z,1028.62
2023-01-25T03:37:05.879Z,1028.72
2023-01-25T03:40:13.002Z,1028.69
2023-01-25T03:43:20.875Z,1028.65
2023-01-25T03:46:28.395Z,1028.68
2023-01-25T03:49:36.204Z,1028.60
2023-01-25T03:52:43.843Z,1028.62
2023-01-25T03:55:51.699Z,1028.58
2023-01-25T03:58:59.327Z,1028.56
2023-01-25T04:02:06.786Z,1028.54
2023-01-25T04:05:14.574Z,1028.47
2023-01-25T04:08:22.423Z,1028.41
2023-01-25T04:11:30.011Z,1028.31
2023-01-25T04:14:44.309Z,1028.28
2023-01-25T04:17:42.272Z,1028.31
2023-01-25T04:20:49.511Z,1028.33
2023-01-25T04:23:57.672Z,1028.30
2023-01-25T04:27:05.612Z,1028.22
2023-01-25T04:30:12.799Z,1028.21
2023-01-25T04:33:20.884Z,1028.17
2023-01-25T04:36:28.634Z,1028.15
2023-01-25T04:39:35.881Z,1028.12
2023-01-25T04:42:43.934Z,1028.08
2023-01-25T04:45:51.525Z,1027.99
2023-01-25T04:48:59.185Z,1028.02
2023-01-25T04:52:07.177Z,1027.95
2023-01-25T04:55:14.767Z,1027.91
2023-01-25T04:58:22.264Z,1027.93
2023-01-25T05:01:30.495Z,1027.90
2023-01-25T05:04:38.010Z,1027.87
2023-01-25T05:07:45.456Z,1027.87
2023-01-25T05:10:52.950Z,1027.80
2023-01-25T05:14:01.080Z,1027.74
2023-01-25T05:17:08.521Z,1027.77
2023-01-25T05:20:16.109Z,1027.79
2023-01-25T05:23:24.126Z,1027.76
2023-01-25T05:26:31.118Z,1027.71
2023-01-25T05:29:39.066Z,1027.71
2023-01-25T05:32:46.561Z,1027.66
2023-01-25T05:35:53.756Z,1027.60
2023-01-25T05:39:01.725Z,1027.67
2023-01-25T05:42:09.663Z,1027.70
2023-01-25T05:45:16.845Z,1027.69
2023-01-25T05:48:24.979Z,1027.64
2023-01-25T05:51:32.444Z,1027.70
2023-01-25T05:54:40.605Z,1027.61
2023-01-25T05:57:48.588Z,1027.57
2023-01-25T06:00:55.817Z,1027.57
2023-01-25T06:04:03.760Z,1027.51
2023-01-25T06:07:11.821Z,1027.50
2023-01-25T06:10:19.113Z,1027.49
2023-01-25T06:13:27.378Z,1027.48
2023-01-25T06:16:35.031Z,1027.41
2023-01-25T06:19:42.992Z,1027.37
2023-01-25T06:22:50.659Z,1027.41
2023-01-25T06:25:58.410Z,1027.49
2023-01-25T06:29:06.026Z,1027.41
2023-01-25T06:32:13.580Z,1027.43
2023-01-25T06:35:21.137Z,1027.42
2023-01-25T06:38:28.891Z,1027.41
2023-01-25T06:41:36.273Z,1027.37
2023-01-25T06:44:43.654Z,1027.45
2023-01-25T06:47:51.160Z,1027.50
2023-01-25T06:50:58.350Z,1027.47
2023-01-25T06:54:06.357Z,1027.50
2023-01-25T06:57:14.195Z,1027.44
2023-01-25T07:00:21.491Z,1027.37
2023-01-25T07:03:29.455Z,1027.37
2023-01-25T07:06:37.538Z,1027.35
2023-01-25T07:09:44.930Z,1027.32
2023-01-25T07:12:53.054Z,1027.30
2023-01-25T07:16:00.602Z,1027.27
2023-01-25T07:19:08.352Z,1027.37
2023-01-25T07:22:16.095Z,1027.32
2023-01-25T07:25:23.676Z,1027.29
2023-01-25T07:28:31.179Z,1027.28
2023-01-25T07:31:38.895Z,1027.22
2023-01-25T07:34:46.368Z,1027.25
2023-01-25T07:37:54.176Z,1027.23
2023-01-25T07:41:01.680Z,1027.22
2023-01-25T07:44:09.527Z,1027.17
2023-01-25T07:47:16.950Z,1027.12
2023-01-25T07:50:24.172Z,1027.14
2023-01-25T07:53:31.980Z,1027.16
2023-01-25T07:56:39.622Z,1027.13
2023-01-25T07:59:47.397Z,1027.05
2023-01-25T08:02:55.503Z,1027.12
2023-01-25T08:06:02.759Z,1027.09
2023-01-25T08:09:10.936Z,1027.08
2023-01-25T08:12:18.941Z,1027.06
2023-01-25T08:15:26.617Z,1027.08
2023-01-25T08:18:35.906Z,1027.03
2023-01-25T08:21:44.074Z,1027.05
2023-01-25T08:24:52.159Z,1027.10
2023-01-25T08:27:59.635Z,1027.06
2023-01-25T08:31:07.215Z,1027.02
2023-01-25T08:34:14.817Z,1027.00
2023-01-25T08:37:22.361Z,1027.00
2023-01-25T08:40:29.848Z,1027.04
2023-01-25T08:43:37.602Z,1027.00
2023-01-25T08:46:44.917Z,1026.94
2023-01-25T08:49:53.165Z,1026.86
2023-01-25T08:53:00.588Z,1026.87
2023-01-25T08:56:08.398Z,1026.81
2023-01-25T08:59:16.584Z,1026.76
2023-01-25T09:02:24.091Z,1026.81
2023-01-25T09:05:31.751Z,1026.67
2023-01-25T09:08:39.873Z,1026.52
2023-01-25T09:11:47.603Z,1026.62
2023-01-25T09:14:55.291Z,1026.62
2023-01-25T09:18:03.064Z,1026.56
2023-01-25T09:21:11.238Z,1026.49
2023-01-25T09:24:19.050Z,1026.57
2023-01-25T09:27:26.309Z,1026.60
2023-01-25T09:30:46.449Z,1026.54
2023-01-25T09:33:39.114Z,1026.55
2023-01-25T09:36:46.642Z,1026.54
2023-01-25T09:39:54.760Z,1026.52
2023-01-25T09:43:02.202Z,1026.49
2023-01-25T09:46:10.516Z,1026.48
2023-01-25T09:49:18.232Z,1026.44
2023-01-25T09:52:25.695Z,1026.40
2023-01-25T09:55:33.640Z,1026.37
2023-01-25T09:58:42.040Z,1026.25
2023-01-25T10:01:49.410Z,1026.17
2023-01-25T10:04:57.332Z,1026.14
2023-01-25T10:08:05.004Z,1026.06
2023-01-25T10:11:12.715Z,1026.04
2023-01-25T10:14:20.943Z,1026.07
2023-01-25T10:17:28.503Z,1025.94
2023-01-25T10:20:36.327Z,1025.86
2023-01-25T10:23:43.939Z,1025.74
2023-01-25T10:26:51.373Z,1025.71
2023-01-25T10:29:58.820Z,1025.75
2023-01-25T10:33:06.370Z,1025.68
2023-01-25T10:36:14.279Z,1025.68
2023-01-25T10:39:22.415Z,1025.57
2023-01-25T10:42:29.735Z,1025.50
2023-01-25T10:45:37.709Z,1025.49
2023-01-25T10:48:45.925Z,1025.39
2023-01-25T10:51:53.317Z,1025.33
2023-01-25T10:55:00.962Z,1025.32
2023-01-25T10:58:08.279Z,1025.28
2023-01-25T11:01:15.994Z,1025.25
2023-01-25T11:04:24.995Z,1025.22
2023-01-25T11:07:32.635Z,1025.12
2023-01-25T11:10:40.208Z,1025.03
2023-01-25T11:13:47.847Z,1024.97
2023-01-25T11:16:55.476Z,1024.90
2023-01-25T11:20:03.221Z,1024.76
2023-01-25T11:23:10.698Z,1024.77
2023-01-25T11:26:18.271Z,1024.70
2023-01-25T11:29:26.539Z,1024.80
2023-01-25T11:32:33.865Z,1024.73
2023-01-25T11:35:41.248Z,1024.69
2023-01-25T11:38:48.398Z,1024.55
2023-01-25T11:41:56.286Z,1024.52
2023-01-25T11:45:04.079Z,1024.41
2023-01-25T11:48:11.405Z,1024.33
2023-01-25T11:51:19.304Z,1024.27
2023-01-25T11:54:26.863Z,1024.22
2023-01-25T11:57:34.631Z,1024.24
2023-01-25T12:00:42.363Z,1024.14
2023-01-25T12:03:49.634Z,1024.12
2023-01-25T12:06:57.664Z,1024.06
2023-01-25T12:10:05.219Z,1024.00
2023-01-25T12:13:13.398Z,1024.00
2023-01-25T12:16:21.420Z,1023.90
2023-01-25T12:19:29.311Z,1023.80
2023-01-25T12:22:37.246Z,1023.71
2023-01-25T12:25:44.790Z,1023.66
2023-01-25T12:28:52.800Z,1023.67
2023-01-25T12:32:00.491Z,1023.56
2023-01-25T12:35:08.251Z,1023.44
2023-01-25T12:38:16.481Z,1023.32
2023-01-25T12:41:23.836Z,1023.19
2023-01-25T12:44:31.949Z,1023.12
2023-01-25T12:47:39.918Z,1023.09
2023-01-25T12:50:47.243Z,1023.06
2023-01-25T12:53:55.233Z,1022.96
2023-01-25T12:57:03.309Z,1022.93
2023-01-25T13:00:11.048Z,1022.90
2023-01-25T13:03:19.244Z,1022.82
2023-01-25T13:06:26.966Z,1022.81
2023-01-25T13:09:34.676Z,1022.76
2023-01-25T13:12:42.676Z,1022.75
2023-01-25T13:15:50.304Z,1022.72
2023-01-25T13:18:57.821Z,1022.72
2023-01-25T13:22:05.616Z,1022.72
2023-01-25T13:25:13.077Z,1022.69
2023-01-25T13:28:21.294Z,1022.62
2023-01-25T13:31:29.067Z,1022.58
2023-01-25T13:34:37.707Z,1022.49
2023-01-25T13:37:45.468Z,1022.46
2023-01-25T13:40:53.113Z,1022.45
2023-01-25T13:44:00.966Z,1022.39
2023-01-25T13:47:08.477Z,1022.29
2023-01-25T13:50:16.071Z,1022.23
2023-01-25T13:53:24.033Z,1022.23
2023-01-25T13:56:31.365Z,1022.18
2023-01-25T13:59:39.479Z,1022.17
2023-01-25T14:02:47.463Z,1022.15
2023-01-25T14:05:54.876Z,1022.08
2023-01-25T14:09:02.932Z,1022.09
2023-01-25T14:12:10.416Z,1022.13
2023-01-25T14:15:17.653Z,1022.06
2023-01-25T14:18:25.565Z,1022.00
2023-01-25T14:21:32.834Z,1022.04
2023-01-25T14:24:40.762Z,1022.10
2023-01-25T14:27:48.977Z,1022.04
2023-01-25T14:30:56.667Z,1022.08
2023-01-25T14:34:04.356Z,1022.02
2023-01-25T14:37:12.097Z,1021.84
2023-01-25T14:40:19.591Z,1021.78
2023-01-25T14:43:27.214Z,1021.77
2023-01-25T14:46:34.859Z,1021.66
2023-01-25T14:49:42.599Z,1021.69
2023-01-25T14:52:50.168Z,1021.61
2023-01-25T14:55:57.567Z,1021.51
2023-01-25T14:59:05.573Z,1021.59
2023-01-25T15:02:13.407Z,1021.51
2023-01-25T15:05:20.932Z,1021.56
2023-01-25T15:08:28.828Z,1021.59
2023-01-25T15:11:36.133Z,1021.52
2023-01-25T15:14:44.277Z,1021.47
2023-01-25T15:17:52.381Z,1021.54
2023-01-25T15:20:59.644Z,1021.43
2023-01-25T15:24:07.756Z,1021.36
2023-01-25T15:27:15.726Z,1021.33
2023-01-25T15:30:22.982Z,1021.27
2023-01-25T15:33:30.938Z,1021.23
2023-01-25T15:36:38.618Z,1021.19
2023-01-25T15:39:46.251Z,1021.21
2023-01-25T15:42:54.239Z,1021.27
2023-01-25T15:46:01.851Z,1021.22
2023-01-25T15:49:09.691Z,1021.20
2023-01-25T15:52:17.891Z,1021.21
2023-01-25T15:55:25.624Z,1021.19
2023-01-25T15:58:33.296Z,1021.19
2023-01-25T16:01:40.965Z,1021.18
2023-01-25T16:04:48.370Z,1021.11
2023-01-25T16:07:55.970Z,1021.09
2023-01-25T16:11:03.667Z,1021.05
2023-01-25T16:14:11.463Z,1021.09
2023-01-25T16:17:18.954Z,1021.20
2023-01-25T16:20:25.955Z,1021.07
2023-01-25T16:23:33.686Z,1021.09
2023-01-25T16:26:40.959Z,1021.01
2023-01-25T16:29:50.028Z,1021.05
2023-01-25T16:32:57.690Z,1021.05
2023-01-25T16:36:05.583Z,1020.99
2023-01-25T16:39:13.094Z,1020.92
2023-01-25T16:42:22.674Z,1020.86
2023-01-25T16:45:30.614Z,1020.86
2023-01-25T16:48:38.354Z,1020.80
2023-01-25T16:51:46.095Z,1020.74
2023-01-25T16:54:53.354Z,1020.71
2023-01-25T16:58:00.791Z,1020.73
2023-01-25T17:01:08.101Z,1020.62
2023-01-25T17:04:16.213Z,1020.61
2023-01-25T17:07:23.954Z,1020.51
2023-01-25T17:10:31.324Z,1020.48
2023-01-25T17:13:39.430Z,1020.45
2023-01-25T17:16:46.751Z,1020.44
2023-01-25T17:19:54.185Z,1020.43
2023-01-25T17:23:01.973Z,1020.39
2023-01-25T17:26:09.093Z,1020.43
2023-01-25T17:29:16.891Z,1020.32
2023-01-25T17:32:24.668Z,1020.22
2023-01-25T17:35:31.765Z,1020.26
2023-01-25T17:38:39.948Z,1020.31
2023-01-25T17:41:47.769Z,1020.26
2023-01-25T17:44:54.869Z,1020.20
2023-01-25T17:48:02.924Z,1020.22
2023-01-25T17:51:10.334Z,1020.16
2023-01-25T17:54:17.796Z,1020.16
2023-01-25T17:57:25.755Z,1020.11
2023-01-25T18:00:33.284Z,1020.02
2023-01-25T18:03:41.267Z,1020.03
2023-01-25T18:06:48.986Z,1020.00
2023-01-25T18:09:56.724Z,1019.99
2023-01-25T18:13:05.143Z,1019.92
2023-01-25T18:16:12.666Z,1019.87
2023-01-25T18:19:20.349Z,1019.86
2023-01-25T18:22:27.875Z,1019.79
2023-01-25T18:25:35.299Z,1019.79
2023-01-25T18:28:43.128Z,1019.79
2023-01-25T18:31:50.730Z,1019.76
2023-01-25T18:34:58.062Z,1019.69
2023-01-25T18:38:05.941Z,1019.63
2023-01-25T18:41:13.084Z,1019.56
2023-01-25T18:44:20.859Z,1019.59
2023-01-25T18:47:28.520Z,1019.53
2023-01-25T18:50:35.694Z,1019.55
2023-01-25T18:53:43.615Z,1019.61
2023-01-25T18:56:51.580Z,1019.62
2023-01-25T18:59:59.875Z,1019.58
2023-01-25T19:03:07.868Z,1019.55
2023-01-25T19:06:15.736Z,1019.50
2023-01-25T19:09:22.997Z,1019.48
2023-01-25T19:12:30.882Z,1019.42
2023-01-25T19:15:38.351Z,1019.48
2023-01-25T19:18:45.976Z,1019.46
2023-01-25T19:21:53.527Z,1019.34
2023-01-25T19:25:01.074Z,1019.38
2023-01-25T19:28:08.614Z,1019.34
2023-01-25T19:31:16.653Z,1019.35
2023-01-25T19:34:24.213Z,1019.24
2023-01-25T19:37:31.762Z,1019.27
2023-01-25T19:40:39.428Z,1019.31
2023-01-25T19:43:47.365Z,1019.21
2023-01-25T19:46:54.998Z,1019.20
2023-01-25T19:50:02.347Z,1019.00
2023-01-25T19:53:10.108Z,1019.00
2023-01-25T19:56:17.444Z,1019.00
2023-01-25T19:59:25.137Z,1018.89
2023-01-25T20:02:33.560Z,1018.82
2023-01-25T20:05:40.662Z,1018.90
2023-01-25T20:08:48.480Z,1018.87
2023-01-25T20:11:56.102Z,1018.85
2023-01-25T20:15:03.100Z,1018.74
2023-01-25T20:18:11.211Z,1018.75
2023-01-25T20:21:19.269Z,1018.67
2023-01-25T20:24:26.788Z,1018.68
2023-01-25T20:27:34.867Z,1018.71
2023-01-25T20:30:42.426Z,1018.69
2023-01-25T20:33:50.067Z,1018.68
2023-01-25T20:36:57.842Z,1018.55
2023-01-25T20:40:05.204Z,1018.59
2023-01-25T20:43:12.665Z,1018.60
2023-01-25T20:46:20.851Z,1018.61
2023-01-25T20:49:28.515Z,1018.57
2023-01-25T20:52:36.025Z,1018.44
2023-01-25T20:55:43.048Z,1018.46
2023-01-25T20:58:50.889Z,1018.40
2023-01-25T21:01:58.267Z,1018.39
2023-01-25T21:05:05.398Z,1018.32
2023-01-25T21:08:13.467Z,1018.26
2023-01-25T21:11:21.226Z,1018.23
2023-01-25T21:14:28.453Z,1018.21
2023-01-25T21:17:36.246Z,1018.23
2023-01-25T21:20:43.799Z,1018.23
2023-01-25T21:23:51.164Z,1018.19
2023-01-25T21:26:59.029Z,1018.22
2023-01-25T21:30:06.477Z,1018.21
2023-01-25T21:33:13.711Z,1018.17
2023-01-25T21:36:21.458Z,1018.11
2023-01-25T21:39:28.962Z,1017.99
2023-01-25T21:42:36.387Z,1018.00
2023-01-25T21:45:43.772Z,1018.02
2023-01-25T21:48:51.522Z,1018.02
2023-01-25T21:51:58.940Z,1017.94
2023-01-25T21:55:06.283Z,1017.89
2023-01-25T21:58:14.341Z,1017.91
2023-01-25T22:01:21.505Z,1018.05
2023-01-25T22:04:29.324Z,1018.09
2023-01-25T22:07:37.128Z,1018.03
2023-01-25T22:10:44.655Z,1017.98
2023-01-25T22:13:52.171Z,1018.02
2023-01-25T22:16:59.780Z,1018.05
2023-01-25T22:20:06.960Z,1017.99
2023-01-25T22:23:14.727Z,1017.98
2023-01-25T22:26:22.183Z,1017.92
2023-01-25T22:29:29.624Z,1017.97
2023-01-25T22:32:37.237Z,1017.89
2023-01-25T22:35:45.402Z,1017.88
2023-01-25T22:38:53.355Z,1017.89
2023-01-25T22:42:00.477Z,1017.88
2023-01-25T22:45:08.217Z,1017.86
2023-01-25T22:48:15.936Z,1017.88
2023-01-25T22:51:25.323Z,1017.86
2023-01-25T22:54:33.102Z,1017.81
2023-01-25T22:57:40.670Z,1017.75
2023-01-25T23:00:48.490Z,1017.63
2023-01-25T23:03:56.453Z,1017.63
2023-01-25T23:07:03.939Z,1017.64
2023-01-25T23:10:11.244Z,1017.65
2023-01-25T23:13:18.907Z,1017.56
2023-01-25T23:16:26.343Z,1017.56
2023-01-25T23:19:33.388Z,1017.56
2023-01-25T23:22:41.358Z,1017.52
2023-01-25T23:25:48.689Z,1017.45
2023-01-25T23:28:55.919Z,1017.40
2023-01-25T23:32:03.547Z,1017.30
2023-01-25T23:35:10.876Z,1017.32
2023-01-25T23:38:18.421Z,1017.30
2023-01-25T23:41:26.609Z,1017.28
2023-01-25T23:44:34.200Z,1017.34
2023-01-25T23:47:41.767Z,1017.35
2023-01-25T23:50:49.003Z,1017.31
2023-01-25T23:53:56.823Z,1017.23
2023-01-25T23:57:03.965Z,1017.17
